sensor_id;sensor_type;location;lat;lon;timestamp;temperature;humidity
27795;DHT22;15176;50.844;4.412;2023-06-14T00:00:48;25.30;51.20
27795;DHT22;15176;50.844;4.412;2023-06-14T00:03:14;25.20;51.10
27795;DHT22;15176;50.844;4.412;2023-06-14T00:05:43;25.20;51.00
27795;DHT22;15176;50.844;4.412;2023-06-14T00:08:09;25.20;51.10
27795;DHT22;15176;50.844;4.412;2023-06-14T00:10:38;25.20;50.80
27795;DHT22;15176;50.844;4.412;2023-06-14T00:13:10;25.20;51.40
27795;DHT22;15176;50.844;4.412;2023-06-14T00:15:36;25.00;51.30
27795;DHT22;15176;50.844;4.412;2023-06-14T00:18:03;25.10;51.50
27795;DHT22;15176;50.844;4.412;2023-06-14T00:20:32;25.30;51.00
27795;DHT22;15176;50.844;4.412;2023-06-14T00:23:02;25.10;50.90
27795;DHT22;15176;50.844;4.412;2023-06-14T00:25:28;24.80;52.10
27795;DHT22;15176;50.844;4.412;2023-06-14T00:27:57;24.80;53.00
27795;DHT22;15176;50.844;4.412;2023-06-14T00:30:23;24.90;51.80
27795;DHT22;15176;50.844;4.412;2023-06-14T00:32:49;24.90;52.60
27795;DHT22;15176;50.844;4.412;2023-06-14T00:35:15;24.90;52.00
27795;DHT22;15176;50.844;4.412;2023-06-14T00:37:41;24.70;52.60
27795;DHT22;15176;50.844;4.412;2023-06-14T00:40:07;24.80;52.60
27795;DHT22;15176;50.844;4.412;2023-06-14T00:42:33;24.60;52.40
27795;DHT22;15176;50.844;4.412;2023-06-14T00:45:00;24.70;52.30
27795;DHT22;15176;50.844;4.412;2023-06-14T00:47:26;24.70;52.50
27795;DHT22;15176;50.844;4.412;2023-06-14T00:49:53;24.60;52.70
27795;DHT22;15176;50.844;4.412;2023-06-14T00:52:21;24.50;52.90
27795;DHT22;15176;50.844;4.412;2023-06-14T00:54:47;24.50;54.00
27795;DHT22;15176;50.844;4.412;2023-06-14T00:57:13;24.40;53.10
27795;DHT22;15176;50.844;4.412;2023-06-14T00:59:44;24.30;53.20
27795;DHT22;15176;50.844;4.412;2023-06-14T01:02:11;24.20;53.60
27795;DHT22;15176;50.844;4.412;2023-06-14T01:04:37;24.20;55.00
27795;DHT22;15176;50.844;4.412;2023-06-14T01:10:20;24.10;54.40
27795;DHT22;15176;50.844;4.412;2023-06-14T01:15:25;24.00;54.20
27795;DHT22;15176;50.844;4.412;2023-06-14T01:17:52;24.00;54.40
27795;DHT22;15176;50.844;4.412;2023-06-14T01:20:22;24.30;53.70
27795;DHT22;15176;50.844;4.412;2023-06-14T01:22:52;24.20;53.70
27795;DHT22;15176;50.844;4.412;2023-06-14T01:25:22;24.20;53.80
27795;DHT22;15176;50.844;4.412;2023-06-14T01:30:18;24.10;54.00
27795;DHT22;15176;50.844;4.412;2023-06-14T01:32:46;24.00;54.30
27795;DHT22;15176;50.844;4.412;2023-06-14T01:35:12;24.00;54.60
27795;DHT22;15176;50.844;4.412;2023-06-14T01:37:39;23.90;54.80
27795;DHT22;15176;50.844;4.412;2023-06-14T01:40:07;23.70;55.10
27795;DHT22;15176;50.844;4.412;2023-06-14T01:42:37;23.90;55.70
27795;DHT22;15176;50.844;4.412;2023-06-14T01:45:07;23.90;55.00
27795;DHT22;15176;50.844;4.412;2023-06-14T01:47:34;23.90;54.90
27795;DHT22;15176;50.844;4.412;2023-06-14T01:50:04;23.90;54.80
27795;DHT22;15176;50.844;4.412;2023-06-14T01:52:30;23.90;55.00
27795;DHT22;15176;50.844;4.412;2023-06-14T01:54:55;23.70;55.50
27795;DHT22;15176;50.844;4.412;2023-06-14T01:57:23;23.70;56.20
27795;DHT22;15176;50.844;4.412;2023-06-14T01:59:49;23.70;56.30
27795;DHT22;15176;50.844;4.412;2023-06-14T02:02:15;23.60;56.00
27795;DHT22;15176;50.844;4.412;2023-06-14T02:04:41;23.40;56.30
27795;DHT22;15176;50.844;4.412;2023-06-14T02:07:07;23.40;56.70
27795;DHT22;15176;50.844;4.412;2023-06-14T02:09:34;23.50;56.60
27795;DHT22;15176;50.844;4.412;2023-06-14T02:12:00;23.50;56.10
27795;DHT22;15176;50.844;4.412;2023-06-14T02:14:26;23.60;56.00
27795;DHT22;15176;50.844;4.412;2023-06-14T02:16:52;23.50;56.40
27795;DHT22;15176;50.844;4.412;2023-06-14T02:19:19;23.40;56.40
27795;DHT22;15176;50.844;4.412;2023-06-14T02:21:46;23.30;56.50
27795;DHT22;15176;50.844;4.412;2023-06-14T02:24:13;23.40;57.00
27795;DHT22;15176;50.844;4.412;2023-06-14T02:26:39;23.40;56.30
27795;DHT22;15176;50.844;4.412;2023-06-14T02:29:05;23.20;57.30
27795;DHT22;15176;50.844;4.412;2023-06-14T02:31:35;23.10;57.20
27795;DHT22;15176;50.844;4.412;2023-06-14T02:34:01;23.00;57.00
27795;DHT22;15176;50.844;4.412;2023-06-14T02:36:26;22.80;57.60
27795;DHT22;15176;50.844;4.412;2023-06-14T02:38:52;22.80;58.10
27795;DHT22;15176;50.844;4.412;2023-06-14T02:41:19;23.00;57.70
27795;DHT22;15176;50.844;4.412;2023-06-14T02:43:45;23.10;57.90
27795;DHT22;15176;50.844;4.412;2023-06-14T02:46:10;22.90;57.60
27795;DHT22;15176;50.844;4.412;2023-06-14T02:48:36;22.90;58.00
27795;DHT22;15176;50.844;4.412;2023-06-14T02:51:02;23.10;57.50
27795;DHT22;15176;50.844;4.412;2023-06-14T02:53:28;23.00;57.60
27795;DHT22;15176;50.844;4.412;2023-06-14T02:55:53;23.00;57.70
27795;DHT22;15176;50.844;4.412;2023-06-14T02:58:21;23.00;58.50
27795;DHT22;15176;50.844;4.412;2023-06-14T03:00:46;22.80;60.00
27795;DHT22;15176;50.844;4.412;2023-06-14T03:03:12;22.90;58.30
27795;DHT22;15176;50.844;4.412;2023-06-14T03:05:45;23.00;58.20
27795;DHT22;15176;50.844;4.412;2023-06-14T03:08:13;23.00;57.90
27795;DHT22;15176;50.844;4.412;2023-06-14T03:10:51;22.90;58.00
27795;DHT22;15176;50.844;4.412;2023-06-14T03:13:16;22.80;58.70
27795;DHT22;15176;50.844;4.412;2023-06-14T03:15:43;22.60;58.80
27795;DHT22;15176;50.844;4.412;2023-06-14T03:18:10;22.70;59.10
27795;DHT22;15176;50.844;4.412;2023-06-14T03:20:38;22.60;60.00
27795;DHT22;15176;50.844;4.412;2023-06-14T03:23:04;22.70;59.00
27795;DHT22;15176;50.844;4.412;2023-06-14T03:25:31;22.70;58.70
27795;DHT22;15176;50.844;4.412;2023-06-14T03:27:57;22.90;58.80
27795;DHT22;15176;50.844;4.412;2023-06-14T03:30:23;22.80;59.20
27795;DHT22;15176;50.844;4.412;2023-06-14T03:32:48;22.90;58.60
27795;DHT22;15176;50.844;4.412;2023-06-14T03:35:16;22.50;59.00
27795;DHT22;15176;50.844;4.412;2023-06-14T03:37:46;22.50;59.40
27795;DHT22;15176;50.844;4.412;2023-06-14T03:40:15;22.60;59.30
27795;DHT22;15176;50.844;4.412;2023-06-14T03:42:41;22.40;59.60
27795;DHT22;15176;50.844;4.412;2023-06-14T03:45:08;22.40;59.80
27795;DHT22;15176;50.844;4.412;2023-06-14T03:47:34;22.30;60.00
27795;DHT22;15176;50.844;4.412;2023-06-14T03:50:01;22.20;60.20
27795;DHT22;15176;50.844;4.412;2023-06-14T03:52:27;22.20;61.00
27795;DHT22;15176;50.844;4.412;2023-06-14T03:54:53;22.20;61.10
27795;DHT22;15176;50.844;4.412;2023-06-14T03:57:19;22.00;61.10
27795;DHT22;15176;50.844;4.412;2023-06-14T03:59:48;21.90;61.30
27795;DHT22;15176;50.844;4.412;2023-06-14T04:02:14;21.90;62.50
27795;DHT22;15176;50.844;4.412;2023-06-14T04:04:41;21.90;62.00
27795;DHT22;15176;50.844;4.412;2023-06-14T04:07:10;21.90;62.00
27795;DHT22;15176;50.844;4.412;2023-06-14T04:09:37;21.80;62.20
27795;DHT22;15176;50.844;4.412;2023-06-14T04:12:03;21.80;62.60
27795;DHT22;15176;50.844;4.412;2023-06-14T04:14:29;21.90;62.50
27795;DHT22;15176;50.844;4.412;2023-06-14T04:16:56;21.90;62.40
27795;DHT22;15176;50.844;4.412;2023-06-14T04:19:22;21.90;62.50
27795;DHT22;15176;50.844;4.412;2023-06-14T04:21:49;22.00;62.50
27795;DHT22;15176;50.844;4.412;2023-06-14T04:24:14;21.90;62.20
27795;DHT22;15176;50.844;4.412;2023-06-14T04:26:42;22.10;63.60
27795;DHT22;15176;50.844;4.412;2023-06-14T04:29:10;22.10;63.20
27795;DHT22;15176;50.844;4.412;2023-06-14T04:31:40;22.10;64.40
27795;DHT22;15176;50.844;4.412;2023-06-14T04:34:06;22.40;63.00
27795;DHT22;15176;50.844;4.412;2023-06-14T04:36:33;22.40;62.40
27795;DHT22;15176;50.844;4.412;2023-06-14T04:39:01;22.50;62.30
27795;DHT22;15176;50.844;4.412;2023-06-14T04:41:29;22.60;61.10
27795;DHT22;15176;50.844;4.412;2023-06-14T04:44:00;22.50;61.20
27795;DHT22;15176;50.844;4.412;2023-06-14T04:46:30;22.50;62.10
27795;DHT22;15176;50.844;4.412;2023-06-14T04:48:57;22.40;62.90
27795;DHT22;15176;50.844;4.412;2023-06-14T04:51:28;22.50;63.90
27795;DHT22;15176;50.844;4.412;2023-06-14T04:53:58;22.50;62.90
27795;DHT22;15176;50.844;4.412;2023-06-14T04:56:24;22.60;61.90
27795;DHT22;15176;50.844;4.412;2023-06-14T04:58:51;22.50;63.80
27795;DHT22;15176;50.844;4.412;2023-06-14T05:01:18;22.20;62.40
27795;DHT22;15176;50.844;4.412;2023-06-14T05:03:46;22.40;62.80
27795;DHT22;15176;50.844;4.412;2023-06-14T05:06:14;22.30;62.20
27795;DHT22;15176;50.844;4.412;2023-06-14T05:08:41;22.40;62.10
27795;DHT22;15176;50.844;4.412;2023-06-14T05:11:06;22.30;62.00
27795;DHT22;15176;50.844;4.412;2023-06-14T05:13:32;22.30;62.00
27795;DHT22;15176;50.844;4.412;2023-06-14T05:15:58;22.50;61.50
27795;DHT22;15176;50.844;4.412;2023-06-14T05:18:24;22.40;61.60
27795;DHT22;15176;50.844;4.412;2023-06-14T05:20:51;22.50;61.60
27795;DHT22;15176;50.844;4.412;2023-06-14T05:23:16;22.50;61.50
27795;DHT22;15176;50.844;4.412;2023-06-14T05:25:45;22.20;62.30
27795;DHT22;15176;50.844;4.412;2023-06-14T05:28:12;22.10;62.80
27795;DHT22;15176;50.844;4.412;2023-06-14T05:30:38;22.10;63.10
27795;DHT22;15176;50.844;4.412;2023-06-14T05:33:05;21.90;63.20
27795;DHT22;15176;50.844;4.412;2023-06-14T05:35:32;21.90;63.70
27795;DHT22;15176;50.844;4.412;2023-06-14T05:37:58;21.90;63.70
27795;DHT22;15176;50.844;4.412;2023-06-14T05:40:24;21.70;64.00
27795;DHT22;15176;50.844;4.412;2023-06-14T05:42:50;21.60;64.90
27795;DHT22;15176;50.844;4.412;2023-06-14T05:45:16;21.80;64.90
27795;DHT22;15176;50.844;4.412;2023-06-14T05:47:42;22.00;64.30
27795;DHT22;15176;50.844;4.412;2023-06-14T05:50:08;22.20;63.80
27795;DHT22;15176;50.844;4.412;2023-06-14T05:52:34;22.30;63.20
27795;DHT22;15176;50.844;4.412;2023-06-14T05:55:04;22.50;62.90
27795;DHT22;15176;50.844;4.412;2023-06-14T05:57:33;22.60;62.80
27795;DHT22;15176;50.844;4.412;2023-06-14T05:59:58;22.30;62.80
27795;DHT22;15176;50.844;4.412;2023-06-14T06:02:24;22.50;62.40
27795;DHT22;15176;50.844;4.412;2023-06-14T06:04:50;22.60;62.50
27795;DHT22;15176;50.844;4.412;2023-06-14T06:07:15;22.60;62.10
27795;DHT22;15176;50.844;4.412;2023-06-14T06:09:41;22.50;62.70
27795;DHT22;15176;50.844;4.412;2023-06-14T06:12:07;22.70;62.50
27795;DHT22;15176;50.844;4.412;2023-06-14T06:14:33;22.90;62.50
27795;DHT22;15176;50.844;4.412;2023-06-14T06:16:59;23.00;62.50
27795;DHT22;15176;50.844;4.412;2023-06-14T06:19:24;23.00;62.50
27795;DHT22;15176;50.844;4.412;2023-06-14T06:21:51;23.00;62.80
27795;DHT22;15176;50.844;4.412;2023-06-14T06:24:19;23.00;62.50
27795;DHT22;15176;50.844;4.412;2023-06-14T06:26:45;23.40;62.50
27795;DHT22;15176;50.844;4.412;2023-06-14T06:29:10;23.70;60.40
27795;DHT22;15176;50.844;4.412;2023-06-14T06:31:36;23.80;60.40
27795;DHT22;15176;50.844;4.412;2023-06-14T06:34:02;23.80;60.80
27795;DHT22;15176;50.844;4.412;2023-06-14T06:36:28;23.80;60.60
27795;DHT22;15176;50.844;4.412;2023-06-14T06:38:54;24.10;59.70
27795;DHT22;15176;50.844;4.412;2023-06-14T06:41:19;24.20;59.30
27795;DHT22;15176;50.844;4.412;2023-06-14T06:43:45;24.30;58.90
27795;DHT22;15176;50.844;4.412;2023-06-14T06:46:12;24.40;58.80
27795;DHT22;15176;50.844;4.412;2023-06-14T06:48:38;24.50;58.50
27795;DHT22;15176;50.844;4.412;2023-06-14T06:51:04;24.50;57.90
27795;DHT22;15176;50.844;4.412;2023-06-14T06:53:31;24.40;58.40
27795;DHT22;15176;50.844;4.412;2023-06-14T06:55:56;24.60;57.80
27795;DHT22;15176;50.844;4.412;2023-06-14T06:58:22;24.70;57.60
27795;DHT22;15176;50.844;4.412;2023-06-14T07:00:48;24.90;57.60
27795;DHT22;15176;50.844;4.412;2023-06-14T07:03:13;25.20;56.70
27795;DHT22;15176;50.844;4.412;2023-06-14T07:05:39;25.60;56.40
27795;DHT22;15176;50.844;4.412;2023-06-14T07:08:05;25.90;56.20
27795;DHT22;15176;50.844;4.412;2023-06-14T07:10:30;26.00;55.50
27795;DHT22;15176;50.844;4.412;2023-06-14T07:12:56;26.10;55.20
27795;DHT22;15176;50.844;4.412;2023-06-14T07:15:22;26.10;55.30
27795;DHT22;15176;50.844;4.412;2023-06-14T07:17:47;26.40;55.00
27795;DHT22;15176;50.844;4.412;2023-06-14T07:20:13;26.90;54.10
27795;DHT22;15176;50.844;4.412;2023-06-14T07:22:42;27.10;53.50
27795;DHT22;15176;50.844;4.412;2023-06-14T07:25:10;27.20;53.50
27795;DHT22;15176;50.844;4.412;2023-06-14T07:27:41;27.20;53.20
27795;DHT22;15176;50.844;4.412;2023-06-14T07:30:07;27.30;53.20
27795;DHT22;15176;50.844;4.412;2023-06-14T07:32:33;27.50;52.40
27795;DHT22;15176;50.844;4.412;2023-06-14T07:34:58;27.60;52.30
27795;DHT22;15176;50.844;4.412;2023-06-14T07:37:24;27.60;52.30
27795;DHT22;15176;50.844;4.412;2023-06-14T07:39:50;27.80;51.80
27795;DHT22;15176;50.844;4.412;2023-06-14T07:42:15;28.10;51.70
27795;DHT22;15176;50.844;4.412;2023-06-14T07:44:42;28.10;50.80
27795;DHT22;15176;50.844;4.412;2023-06-14T07:47:07;27.90;51.40
27795;DHT22;15176;50.844;4.412;2023-06-14T07:49:38;28.30;50.70
27795;DHT22;15176;50.844;4.412;2023-06-14T07:52:04;28.60;50.40
27795;DHT22;15176;50.844;4.412;2023-06-14T07:54:30;28.80;50.70
27795;DHT22;15176;50.844;4.412;2023-06-14T07:56:58;28.60;52.20
27795;DHT22;15176;50.844;4.412;2023-06-14T07:59:27;28.60;51.50
27795;DHT22;15176;50.844;4.412;2023-06-14T08:01:53;28.60;51.80
27795;DHT22;15176;50.844;4.412;2023-06-14T08:04:18;28.70;51.00
27795;DHT22;15176;50.844;4.412;2023-06-14T08:06:44;28.80;51.80
27795;DHT22;15176;50.844;4.412;2023-06-14T08:09:11;28.90;51.00
27795;DHT22;15176;50.844;4.412;2023-06-14T08:11:38;29.30;51.00
27795;DHT22;15176;50.844;4.412;2023-06-14T08:14:04;29.50;50.10
27795;DHT22;15176;50.844;4.412;2023-06-14T08:16:30;29.80;49.90
27795;DHT22;15176;50.844;4.412;2023-06-14T08:18:56;29.60;48.90
27795;DHT22;15176;50.844;4.412;2023-06-14T08:21:22;29.70;48.30
27795;DHT22;15176;50.844;4.412;2023-06-14T08:24:01;30.10;48.40
27795;DHT22;15176;50.844;4.412;2023-06-14T08:26:33;30.00;49.90
27795;DHT22;15176;50.844;4.412;2023-06-14T08:29:02;29.90;49.50
27795;DHT22;15176;50.844;4.412;2023-06-14T08:31:27;30.10;49.30
27795;DHT22;15176;50.844;4.412;2023-06-14T08:33:53;30.30;48.70
27795;DHT22;15176;50.844;4.412;2023-06-14T08:36:19;30.10;48.90
27795;DHT22;15176;50.844;4.412;2023-06-14T08:38:45;30.20;48.60
27795;DHT22;15176;50.844;4.412;2023-06-14T08:41:12;30.30;48.70
27795;DHT22;15176;50.844;4.412;2023-06-14T08:43:39;30.30;49.00
27795;DHT22;15176;50.844;4.412;2023-06-14T08:46:07;30.70;48.50
27795;DHT22;15176;50.844;4.412;2023-06-14T08:48:36;31.00;46.80
27795;DHT22;15176;50.844;4.412;2023-06-14T08:51:03;30.50;47.10
27795;DHT22;15176;50.844;4.412;2023-06-14T08:53:34;30.50;47.10
27795;DHT22;15176;50.844;4.412;2023-06-14T08:56:02;30.50;47.60
27795;DHT22;15176;50.844;4.412;2023-06-14T08:58:34;30.40;48.50
27795;DHT22;15176;50.844;4.412;2023-06-14T09:01:02;30.30;47.80
27795;DHT22;15176;50.844;4.412;2023-06-14T09:03:27;30.60;47.50
27795;DHT22;15176;50.844;4.412;2023-06-14T09:05:59;30.70;46.90
27795;DHT22;15176;50.844;4.412;2023-06-14T09:08:27;30.80;47.70
27795;DHT22;15176;50.844;4.412;2023-06-14T09:10:57;31.00;47.70
27795;DHT22;15176;50.844;4.412;2023-06-14T09:13:22;30.90;48.20
27795;DHT22;15176;50.844;4.412;2023-06-14T09:15:48;31.30;47.60
27795;DHT22;15176;50.844;4.412;2023-06-14T09:18:15;31.50;47.70
27795;DHT22;15176;50.844;4.412;2023-06-14T09:20:41;31.80;47.10
27795;DHT22;15176;50.844;4.412;2023-06-14T09:23:07;32.00;47.50
27795;DHT22;15176;50.844;4.412;2023-06-14T09:25:42;31.70;45.10
27795;DHT22;15176;50.844;4.412;2023-06-14T09:28:08;31.60;44.40
27795;DHT22;15176;50.844;4.412;2023-06-14T09:30:35;31.70;44.50
27795;DHT22;15176;50.844;4.412;2023-06-14T09:33:01;31.80;44.70
27795;DHT22;15176;50.844;4.412;2023-06-14T09:35:26;32.00;44.20
27795;DHT22;15176;50.844;4.412;2023-06-14T09:37:55;31.70;43.90
27795;DHT22;15176;50.844;4.412;2023-06-14T09:40:21;31.70;44.40
27795;DHT22;15176;50.844;4.412;2023-06-14T09:42:47;31.70;45.00
27795;DHT22;15176;50.844;4.412;2023-06-14T09:45:14;31.50;45.20
27795;DHT22;15176;50.844;4.412;2023-06-14T09:47:46;31.60;44.90
27795;DHT22;15176;50.844;4.412;2023-06-14T09:50:13;31.70;45.70
27795;DHT22;15176;50.844;4.412;2023-06-14T09:52:39;31.80;45.00
27795;DHT22;15176;50.844;4.412;2023-06-14T09:55:12;32.00;44.10
27795;DHT22;15176;50.844;4.412;2023-06-14T09:57:41;32.30;43.60
27795;DHT22;15176;50.844;4.412;2023-06-14T10:00:17;32.60;43.70
27795;DHT22;15176;50.844;4.412;2023-06-14T10:02:49;32.40;42.30
27795;DHT22;15176;50.844;4.412;2023-06-14T10:05:17;32.40;41.60
27795;DHT22;15176;50.844;4.412;2023-06-14T10:10:22;32.40;41.90
27795;DHT22;15176;50.844;4.412;2023-06-14T10:12:49;32.40;42.00
27795;DHT22;15176;50.844;4.412;2023-06-14T10:16:14;32.50;42.00
27795;DHT22;15176;50.844;4.412;2023-06-14T10:23:41;33.20;40.80
27795;DHT22;15176;50.844;4.412;2023-06-14T10:26:08;33.20;41.40
27795;DHT22;15176;50.844;4.412;2023-06-14T10:28:38;33.00;41.80
27795;DHT22;15176;50.844;4.412;2023-06-14T10:31:11;33.20;41.30
27795;DHT22;15176;50.844;4.412;2023-06-14T10:33:48;32.90;41.30
27795;DHT22;15176;50.844;4.412;2023-06-14T10:36:27;33.00;41.30
27795;DHT22;15176;50.844;4.412;2023-06-14T10:39:05;32.80;41.60
27795;DHT22;15176;50.844;4.412;2023-06-14T10:41:40;32.90;41.70
27795;DHT22;15176;50.844;4.412;2023-06-14T10:46:48;33.30;40.40
27795;DHT22;15176;50.844;4.412;2023-06-14T10:49:18;33.60;40.50
27795;DHT22;15176;50.844;4.412;2023-06-14T10:51:51;33.40;39.30
27795;DHT22;15176;50.844;4.412;2023-06-14T10:54:20;33.30;39.40
27795;DHT22;15176;50.844;4.412;2023-06-14T10:56:46;33.60;39.60
27795;DHT22;15176;50.844;4.412;2023-06-14T10:59:15;33.70;40.60
27795;DHT22;15176;50.844;4.412;2023-06-14T11:04:43;33.90;38.40
27795;DHT22;15176;50.844;4.412;2023-06-14T11:12:48;34.00;37.80
27795;DHT22;15176;50.844;4.412;2023-06-14T11:15:15;33.70;37.70
27795;DHT22;15176;50.844;4.412;2023-06-14T11:17:51;33.50;37.40
27795;DHT22;15176;50.844;4.412;2023-06-14T11:20:19;33.70;38.20
27795;DHT22;15176;50.844;4.412;2023-06-14T11:22:45;33.60;38.30
27795;DHT22;15176;50.844;4.412;2023-06-14T11:25:15;33.70;38.00
27795;DHT22;15176;50.844;4.412;2023-06-14T11:27:44;33.70;37.90
27795;DHT22;15176;50.844;4.412;2023-06-14T11:30:10;33.80;37.60
27795;DHT22;15176;50.844;4.412;2023-06-14T11:32:37;33.80;37.50
27795;DHT22;15176;50.844;4.412;2023-06-14T11:35:04;33.60;38.00
27795;DHT22;15176;50.844;4.412;2023-06-14T11:37:33;33.50;37.20
27795;DHT22;15176;50.844;4.412;2023-06-14T11:39:59;33.60;38.10
27795;DHT22;15176;50.844;4.412;2023-06-14T11:42:28;33.40;38.10
27795;DHT22;15176;50.844;4.412;2023-06-14T11:44:54;33.50;37.50
27795;DHT22;15176;50.844;4.412;2023-06-14T11:47:21;32.90;37.70
27795;DHT22;15176;50.844;4.412;2023-06-14T11:49:47;32.50;38.60
27795;DHT22;15176;50.844;4.412;2023-06-14T11:52:13;32.60;38.30
27795;DHT22;15176;50.844;4.412;2023-06-14T11:54:39;32.80;38.40
27795;DHT22;15176;50.844;4.412;2023-06-14T11:57:07;32.90;38.50
27795;DHT22;15176;50.844;4.412;2023-06-14T11:59:44;32.90;38.60
27795;DHT22;15176;50.844;4.412;2023-06-14T12:02:13;32.90;37.90
27795;DHT22;15176;50.844;4.412;2023-06-14T12:04:44;33.20;37.50
27795;DHT22;15176;50.844;4.412;2023-06-14T12:07:13;33.40;37.80
27795;DHT22;15176;50.844;4.412;2023-06-14T12:10:03;33.40;37.20
27795;DHT22;15176;50.844;4.412;2023-06-14T12:12:35;33.10;38.30
27795;DHT22;15176;50.844;4.412;2023-06-14T12:15:03;33.60;38.50
27795;DHT22;15176;50.844;4.412;2023-06-14T12:17:36;33.80;37.00
27795;DHT22;15176;50.844;4.412;2023-06-14T12:20:14;33.80;36.10
27795;DHT22;15176;50.844;4.412;2023-06-14T12:22:55;33.60;37.00
27795;DHT22;15176;50.844;4.412;2023-06-14T12:25:32;33.40;36.90
27795;DHT22;15176;50.844;4.412;2023-06-14T12:27:59;33.60;36.70
27795;DHT22;15176;50.844;4.412;2023-06-14T12:30:28;33.60;36.80
27795;DHT22;15176;50.844;4.412;2023-06-14T12:32:55;33.60;36.00
27795;DHT22;15176;50.844;4.412;2023-06-14T12:35:21;33.80;36.80
27795;DHT22;15176;50.844;4.412;2023-06-14T12:37:47;33.60;36.50
27795;DHT22;15176;50.844;4.412;2023-06-14T12:40:13;33.60;36.50
27795;DHT22;15176;50.844;4.412;2023-06-14T12:42:39;33.50;36.50
27795;DHT22;15176;50.844;4.412;2023-06-14T12:45:06;33.30;35.60
27795;DHT22;15176;50.844;4.412;2023-06-14T12:47:31;33.00;36.30
27795;DHT22;15176;50.844;4.412;2023-06-14T12:49:57;32.90;37.40
27795;DHT22;15176;50.844;4.412;2023-06-14T12:52:23;33.00;37.00
27795;DHT22;15176;50.844;4.412;2023-06-14T12:54:49;33.20;37.10
27795;DHT22;15176;50.844;4.412;2023-06-14T12:57:18;33.40;36.40
27795;DHT22;15176;50.844;4.412;2023-06-14T12:59:43;33.70;35.70
27795;DHT22;15176;50.844;4.412;2023-06-14T13:02:13;33.70;35.70
27795;DHT22;15176;50.844;4.412;2023-06-14T13:04:40;33.60;35.90
27795;DHT22;15176;50.844;4.412;2023-06-14T13:07:07;33.50;36.10
27795;DHT22;15176;50.844;4.412;2023-06-14T13:09:33;33.60;35.80
27795;DHT22;15176;50.844;4.412;2023-06-14T13:11:58;33.80;36.00
27795;DHT22;15176;50.844;4.412;2023-06-14T13:14:24;33.80;35.80
27795;DHT22;15176;50.844;4.412;2023-06-14T13:16:50;33.70;36.30
27795;DHT22;15176;50.844;4.412;2023-06-14T13:19:15;33.70;36.50
27795;DHT22;15176;50.844;4.412;2023-06-14T13:21:41;33.70;36.50
27795;DHT22;15176;50.844;4.412;2023-06-14T13:24:07;33.30;37.20
27795;DHT22;15176;50.844;4.412;2023-06-14T13:26:34;33.60;36.60
27795;DHT22;15176;50.844;4.412;2023-06-14T13:28:59;33.70;36.50
27795;DHT22;15176;50.844;4.412;2023-06-14T13:31:25;33.70;36.10
27795;DHT22;15176;50.844;4.412;2023-06-14T13:33:51;33.70;36.00
27795;DHT22;15176;50.844;4.412;2023-06-14T13:36:17;33.80;36.50
27795;DHT22;15176;50.844;4.412;2023-06-14T13:38:43;33.80;35.20
27795;DHT22;15176;50.844;4.412;2023-06-14T13:41:08;33.70;35.40
27795;DHT22;15176;50.844;4.412;2023-06-14T13:43:34;33.60;35.40
27795;DHT22;15176;50.844;4.412;2023-06-14T13:46:00;33.40;35.20
27795;DHT22;15176;50.844;4.412;2023-06-14T13:48:26;33.20;35.90
27795;DHT22;15176;50.844;4.412;2023-06-14T13:50:51;33.50;35.80
27795;DHT22;15176;50.844;4.412;2023-06-14T13:53:17;33.50;35.40
27795;DHT22;15176;50.844;4.412;2023-06-14T13:55:43;33.50;34.80
27795;DHT22;15176;50.844;4.412;2023-06-14T13:58:09;33.50;34.50
27795;DHT22;15176;50.844;4.412;2023-06-14T14:00:34;33.20;34.60
27795;DHT22;15176;50.844;4.412;2023-06-14T14:03:03;33.00;35.40
27795;DHT22;15176;50.844;4.412;2023-06-14T14:05:30;33.00;35.00
27795;DHT22;15176;50.844;4.412;2023-06-14T14:07:56;32.90;34.60
27795;DHT22;15176;50.844;4.412;2023-06-14T14:10:23;32.30;35.50
27795;DHT22;15176;50.844;4.412;2023-06-14T14:12:50;32.60;35.30
27795;DHT22;15176;50.844;4.412;2023-06-14T14:15:16;32.60;35.50
27795;DHT22;15176;50.844;4.412;2023-06-14T14:17:42;32.90;34.70
27795;DHT22;15176;50.844;4.412;2023-06-14T14:20:08;32.80;33.80
27795;DHT22;15176;50.844;4.412;2023-06-14T14:22:34;32.70;35.00
27795;DHT22;15176;50.844;4.412;2023-06-14T14:25:00;32.60;34.20
27795;DHT22;15176;50.844;4.412;2023-06-14T14:27:26;32.70;34.50
27795;DHT22;15176;50.844;4.412;2023-06-14T14:29:51;32.70;34.80
27795;DHT22;15176;50.844;4.412;2023-06-14T14:32:17;32.80;34.50
27795;DHT22;15176;50.844;4.412;2023-06-14T14:34:43;32.70;33.80
27795;DHT22;15176;50.844;4.412;2023-06-14T14:37:08;33.00;33.60
27795;DHT22;15176;50.844;4.412;2023-06-14T14:39:34;33.10;33.60
27795;DHT22;15176;50.844;4.412;2023-06-14T14:42:00;32.80;34.50
27795;DHT22;15176;50.844;4.412;2023-06-14T14:44:27;32.70;34.30
27795;DHT22;15176;50.844;4.412;2023-06-14T14:46:53;32.60;34.30
27795;DHT22;15176;50.844;4.412;2023-06-14T14:49:18;32.20;34.80
27795;DHT22;15176;50.844;4.412;2023-06-14T14:51:44;32.20;35.00
27795;DHT22;15176;50.844;4.412;2023-06-14T14:54:10;32.20;35.20
27795;DHT22;15176;50.844;4.412;2023-06-14T14:56:37;32.30;33.90
27795;DHT22;15176;50.844;4.412;2023-06-14T14:59:03;31.60;34.40
27795;DHT22;15176;50.844;4.412;2023-06-14T15:01:29;31.70;35.10
27795;DHT22;15176;50.844;4.412;2023-06-14T15:03:56;31.80;34.60
27795;DHT22;15176;50.844;4.412;2023-06-14T15:06:21;31.70;34.50
27795;DHT22;15176;50.844;4.412;2023-06-14T15:08:47;31.70;34.80
27795;DHT22;15176;50.844;4.412;2023-06-14T15:11:13;31.40;34.80
27795;DHT22;15176;50.844;4.412;2023-06-14T15:13:38;31.50;35.60
27795;DHT22;15176;50.844;4.412;2023-06-14T15:16:04;31.60;35.60
27795;DHT22;15176;50.844;4.412;2023-06-14T15:18:30;31.40;35.40
27795;DHT22;15176;50.844;4.412;2023-06-14T15:20:55;31.10;36.30
27795;DHT22;15176;50.844;4.412;2023-06-14T15:23:21;31.30;35.80
27795;DHT22;15176;50.844;4.412;2023-06-14T15:25:47;31.10;35.70
27795;DHT22;15176;50.844;4.412;2023-06-14T15:28:13;31.50;35.90
27795;DHT22;15176;50.844;4.412;2023-06-14T15:30:39;31.60;36.30
27795;DHT22;15176;50.844;4.412;2023-06-14T15:33:05;31.30;36.00
27795;DHT22;15176;50.844;4.412;2023-06-14T15:35:31;31.10;36.40
27795;DHT22;15176;50.844;4.412;2023-06-14T15:37:57;30.80;36.80
27795;DHT22;15176;50.844;4.412;2023-06-14T15:40:22;30.60;37.30
27795;DHT22;15176;50.844;4.412;2023-06-14T15:42:48;30.50;36.70
27795;DHT22;15176;50.844;4.412;2023-06-14T15:45:14;30.40;37.20
27795;DHT22;15176;50.844;4.412;2023-06-14T15:47:39;30.60;37.00
27795;DHT22;15176;50.844;4.412;2023-06-14T15:50:06;30.40;36.60
27795;DHT22;15176;50.844;4.412;2023-06-14T15:52:35;30.60;37.00
27795;DHT22;15176;50.844;4.412;2023-06-14T15:55:00;30.70;36.50
27795;DHT22;15176;50.844;4.412;2023-06-14T15:57:27;30.80;37.40